createdAt,value
2023-12-04T00:01:12.562Z,99196.50
2023-12-04T00:04:14.828Z,99195.63
2023-12-04T00:07:16.645Z,99194.75
2023-12-04T00:10:18.433Z,99179.66
2023-12-04T00:13:19.986Z,99178.94
2023-12-04T00:16:21.676Z,99184.94
2023-12-04T00:19:23.298Z,99171.63
2023-12-04T00:22:25.557Z,99169.78
2023-12-04T00:25:27.294Z,99165.56
2023-12-04T00:28:29.974Z,99153.38
2023-12-04T00:31:32.883Z,99147.44
2023-12-04T00:34:34.666Z,99141.13
2023-12-04T00:37:39.875Z,99128.72
2023-12-04T00:40:41.510Z,99140.91
2023-12-04T00:43:43.329Z,99141.78
2023-12-04T00:46:45.119Z,99137.53
2023-12-04T00:49:46.780Z,99130.16
2023-12-04T00:52:48.806Z,99124.41
2023-12-04T00:55:50.526Z,99119.19
2023-12-04T00:58:52.107Z,99107.50
2023-12-04T01:01:53.704Z,99112.16
2023-12-04T01:04:55.358Z,99118.25
2023-12-04T01:07:56.948Z,99119.13
2023-12-04T01:10:58.576Z,99123.69
2023-12-04T01:14:00.222Z,99119.06
2023-12-04T01:17:01.856Z,99114.25
2023-12-04T01:20:03.819Z,99106.00
2023-12-04T01:23:05.506Z,99107.94
2023-12-04T01:26:07.302Z,99110.91
2023-12-04T01:29:09.009Z,99107.56
2023-12-04T01:32:10.754Z,99101.38
2023-12-04T01:35:12.451Z,99102.34
2023-12-04T01:38:14.119Z,99104.97
2023-12-04T01:41:15.757Z,99108.97
2023-12-04T01:44:18.261Z,99088.09
2023-12-04T01:47:20.983Z,99096.19
2023-12-04T01:50:23.063Z,99086.44
2023-12-04T01:53:25.278Z,99092.59
2023-12-04T01:56:27.527Z,99079.06
2023-12-04T01:59:29.191Z,99059.41
2023-12-04T02:02:30.950Z,99069.66
2023-12-04T02:05:33.167Z,99064.94
2023-12-04T02:08:35.396Z,99062.13
2023-12-04T02:11:37.078Z,99059.66
2023-12-04T02:14:39.699Z,99057.34
2023-12-04T02:17:42.833Z,99057.16
2023-12-04T02:20:44.476Z,99058.69
2023-12-04T02:23:51.088Z,99058.13
2023-12-04T02:27:21.793Z,99050.75
2023-12-04T02:30:25.627Z,99030.97
2023-12-04T02:33:28.669Z,99029.78
2023-12-04T02:36:32.218Z,99026.88
2023-12-04T02:39:33.938Z,99034.19
2023-12-04T02:42:35.658Z,99022.84
2023-12-04T02:45:37.326Z,99028.75
2023-12-04T02:48:39.124Z,99025.31
2023-12-04T02:51:43.822Z,99021.06
2023-12-04T02:54:45.630Z,99021.31
2023-12-04T02:57:47.433Z,99011.22
2023-12-04T03:00:49.135Z,99024.66
2023-12-04T03:03:50.933Z,99010.75
2023-12-04T03:06:52.919Z,99016.75
2023-12-04T03:09:54.755Z,99008.97
2023-12-04T03:12:56.524Z,98998.06
2023-12-04T03:15:58.238Z,99008.63
2023-12-04T03:19:00.194Z,99009.19
2023-12-04T03:22:02.748Z,99007.75
2023-12-04T03:25:04.981Z,98997.00
2023-12-04T03:28:06.856Z,98997.66
2023-12-04T03:31:08.714Z,99009.00
2023-12-04T03:34:10.694Z,98995.56
2023-12-04T03:37:12.577Z,99002.38
2023-12-04T03:40:14.333Z,99008.00
2023-12-04T03:43:16.081Z,98998.19
2023-12-04T03:46:19.178Z,98986.66
2023-12-04T03:49:21.221Z,98981.31
2023-12-04T03:52:23.018Z,98991.25
2023-12-04T03:55:24.893Z,98988.22
2023-12-04T03:58:27.065Z,98971.97
2023-12-04T04:01:29.480Z,98969.38
2023-12-04T04:04:31.284Z,98964.84
2023-12-04T04:07:33.075Z,98967.91
2023-12-04T04:10:35.377Z,98960.78
2023-12-04T04:13:37.596Z,98949.22
2023-12-04T04:16:39.227Z,98941.09
2023-12-04T04:19:41.912Z,98937.69
2023-12-04T04:22:43.921Z,98930.69
2023-12-04T04:25:45.762Z,98931.53
2023-12-04T04:28:48.600Z,98932.19
2023-12-04T04:31:50.231Z,98926.69
2023-12-04T04:34:51.910Z,98924.59
2023-12-04T04:37:53.644Z,98928.03
2023-12-04T04:40:55.408Z,98910.00
2023-12-04T04:43:57.157Z,98904.50
2023-12-04T04:46:58.881Z,98902.94
2023-12-04T04:50:00.653Z,98911.88
2023-12-04T04:53:02.325Z,98911.31
2023-12-04T04:56:04.355Z,98898.63
2023-12-04T04:59:06.219Z,98899.94
2023-12-04T05:02:07.899Z,98890.34
2023-12-04T05:05:09.676Z,98893.22
2023-12-04T05:08:11.402Z,98881.06
2023-12-04T05:11:16.008Z,98887.94
2023-12-04T05:14:17.696Z,98877.59
2023-12-04T05:17:19.543Z,98882.34
2023-12-04T05:20:21.196Z,98879.97
2023-12-04T05:23:22.994Z,98873.53
2023-12-04T05:26:24.640Z,98863.47
2023-12-04T05:29:26.413Z,98866.69
2023-12-04T05:32:28.118Z,98867.28
2023-12-04T05:35:29.872Z,98866.44
2023-12-04T05:38:31.620Z,98852.00
2023-12-04T05:41:33.390Z,98861.31
2023-12-04T05:44:35.987Z,98862.44
2023-12-04T05:47:37.832Z,98862.19
2023-12-04T05:50:39.587Z,98850.81
2023-12-04T05:53:41.244Z,98851.06
2023-12-04T05:56:43.929Z,98830.72
2023-12-04T05:59:45.670Z,98823.81
2023-12-04T06:02:47.425Z,98801.31
2023-12-04T06:05:49.149Z,98798.91
2023-12-04T06:08:50.789Z,98787.00
2023-12-04T06:11:52.422Z,98802.41
2023-12-04T06:14:54.141Z,98797.66
2023-12-04T06:17:55.932Z,98787.59
2023-12-04T06:20:57.744Z,98784.44
2023-12-04T06:23:59.771Z,98773.06
2023-12-04T06:27:01.842Z,98773.13
2023-12-04T06:30:04.090Z,98767.28
2023-12-04T06:33:06.260Z,98765.69
2023-12-04T06:36:08.692Z,98795.06
2023-12-04T06:39:14.398Z,98798.22
2023-12-04T06:42:16.488Z,98797.59
2023-12-04T06:45:19.149Z,98798.16
2023-12-04T06:48:21.066Z,98818.56
2023-12-04T06:51:22.760Z,98810.66
2023-12-04T06:54:24.433Z,98810.94
2023-12-04T06:57:26.184Z,98823.72
2023-12-04T07:00:27.950Z,98826.94
2023-12-04T07:03:29.740Z,98815.78
2023-12-04T07:06:31.504Z,98809.06
2023-12-04T07:09:34.173Z,98820.78
2023-12-04T07:12:36.003Z,98812.78
2023-12-04T07:15:37.818Z,98796.00
2023-12-04T07:18:39.627Z,98807.75
2023-12-04T07:21:42.143Z,98795.84
2023-12-04T07:24:43.941Z,98786.34
2023-12-04T07:27:45.627Z,98784.19
2023-12-04T07:30:47.626Z,98780.56
2023-12-04T07:33:49.401Z,98767.41
2023-12-04T07:36:51.907Z,98759.75
2023-12-04T07:39:54.037Z,98744.44
2023-12-04T07:42:55.850Z,98735.44
2023-12-04T07:45:59.110Z,98725.19
2023-12-04T07:49:00.929Z,98712.50
2023-12-04T07:52:02.735Z,98715.44
2023-12-04T07:55:05.285Z,98716.53
2023-12-04T07:58:06.987Z,98707.19
2023-12-04T08:01:09.485Z,98710.16
2023-12-04T08:04:11.456Z,98697.00
2023-12-04T08:07:13.212Z,98699.38
2023-12-04T08:10:15.496Z,98695.97
2023-12-04T08:13:20.445Z,98707.94
2023-12-04T08:16:22.317Z,98725.09
2023-12-04T08:19:24.968Z,98728.22
2023-12-04T08:22:26.870Z,98744.91
2023-12-04T08:25:28.611Z,98745.41
2023-12-04T08:28:30.341Z,98754.69
2023-12-04T08:31:31.983Z,98761.03
2023-12-04T08:34:34.491Z,98736.66
2023-12-04T08:37:36.684Z,98739.34
2023-12-04T08:40:39.312Z,98741.47
2023-12-04T08:43:41.026Z,98744.69
2023-12-04T08:46:44.932Z,98744.94
2023-12-04T08:49:49.345Z,98752.44
2023-12-04T08:52:51.655Z,98748.22
2023-12-04T08:55:54.152Z,98762.78
2023-12-04T08:58:55.953Z,98774.91
2023-12-04T09:01:57.875Z,98789.66
2023-12-04T09:05:00.212Z,98796.53
2023-12-04T09:08:30.440Z,98782.28
2023-12-04T09:11:24.627Z,98771.97
2023-12-04T09:14:29.013Z,98744.25
2023-12-04T09:17:36.457Z,98704.34
2023-12-04T09:20:41.909Z,98699.41
2023-12-04T09:23:43.634Z,98709.19
2023-12-04T09:26:45.922Z,98725.63
2023-12-04T09:29:47.754Z,98720.34
2023-12-04T09:32:49.510Z,98729.34
2023-12-04T09:35:51.423Z,98723.56
2023-12-04T09:38:53.159Z,98724.06
2023-12-04T09:41:56.200Z,98703.41
2023-12-04T09:44:59.518Z,98690.75
2023-12-04T09:48:01.457Z,98694.00
2023-12-04T09:51:04.135Z,98669.13
2023-12-04T09:54:06.498Z,98664.88
2023-12-04T09:57:08.260Z,98695.34
2023-12-04T10:00:11.780Z,98710.19
2023-12-04T10:03:14.299Z,98733.00
2023-12-04T10:06:20.418Z,98738.50
2023-12-04T10:09:23.834Z,98746.75
2023-12-04T10:12:27.005Z,98730.06
2023-12-04T10:15:28.879Z,98731.66
2023-12-04T10:18:33.768Z,98714.72
2023-12-04T10:21:35.670Z,98680.75
2023-12-04T10:24:39.902Z,98701.97
2023-12-04T10:27:41.703Z,98677.34
2023-12-04T10:30:43.684Z,98677.06
2023-12-04T10:33:50.834Z,98682.66
2023-12-04T10:36:53.485Z,98662.78
2023-12-04T10:39:55.217Z,98663.34
2023-12-04T10:43:15.935Z,98659.06
2023-12-04T10:46:18.353Z,98649.56
2023-12-04T10:49:20.285Z,98650.88
2023-12-04T10:52:22.776Z,98632.63
2023-12-04T10:55:25.606Z,98627.06
2023-12-04T10:58:28.397Z,98629.19
2023-12-04T11:01:33.036Z,98605.06
2023-12-04T11:04:37.362Z,98598.19
2023-12-04T11:08:12.764Z,98591.28
2023-12-04T11:11:12.903Z,98568.47
2023-12-04T11:14:19.766Z,98566.91
2023-12-04T11:17:22.749Z,98555.25
2023-12-04T11:20:26.102Z,98546.25
2023-12-04T11:23:29.112Z,98534.19
2023-12-04T11:26:31.520Z,98529.16
2023-12-04T11:29:34.546Z,98508.03
2023-12-04T11:32:52.118Z,98516.44
2023-12-04T11:35:53.969Z,98513.16
2023-12-04T11:38:57.644Z,98496.09
2023-12-04T11:42:01.270Z,98499.25
2023-12-04T11:45:04.035Z,98486.72
2023-12-04T11:48:05.948Z,98477.50
2023-12-04T11:51:08.662Z,98472.69
2023-12-04T11:54:11.613Z,98468.72
2023-12-04T11:57:13.292Z,98466.97
2023-12-04T12:00:18.961Z,98474.41
2023-12-04T12:03:23.700Z,98457.63
2023-12-04T12:06:26.194Z,98444.50
2023-12-04T12:09:29.347Z,98424.72
2023-12-04T12:12:32.710Z,98436.47
2023-12-04T12:15:35.444Z,98403.59
2023-12-04T12:18:37.371Z,98421.03
2023-12-04T12:21:39.765Z,98405.31
2023-12-04T12:24:41.559Z,98403.16
2023-12-04T12:27:44.730Z,98402.16
2023-12-04T12:30:46.831Z,98389.50
2023-12-04T12:33:48.630Z,98386.91
2023-12-04T12:36:50.862Z,98378.72
2023-12-04T12:39:53.181Z,98370.28
2023-12-04T12:43:06.760Z,98359.91
2023-12-04T12:46:09.434Z,98370.16
2023-12-04T12:49:16.575Z,98372.03
2023-12-04T12:52:20.882Z,98368.44
2023-12-04T12:55:26.381Z,98367.69
2023-12-04T12:58:28.761Z,98363.91
2023-12-04T13:01:34.180Z,98347.13
2023-12-04T13:04:37.142Z,98330.44
2023-12-04T13:07:39.119Z,98339.81
2023-12-04T13:10:43.828Z,98314.63
2023-12-04T13:13:45.659Z,98335.28
2023-12-04T13:16:47.503Z,98314.50
2023-12-04T13:19:49.188Z,98314.13
2023-12-04T13:22:50.924Z,98302.78
2023-12-04T13:25:52.685Z,98304.97
2023-12-04T13:28:54.429Z,98287.13
2023-12-04T13:31:56.122Z,98304.00
2023-12-04T13:34:57.863Z,98297.03
2023-12-04T13:38:00.466Z,98277.63
2023-12-04T13:41:09.928Z,98282.97
2023-12-04T13:44:15.444Z,98275.19
2023-12-04T13:47:17.226Z,98281.50
2023-12-04T13:50:18.968Z,98281.34
2023-12-04T13:53:26.801Z,98274.16
2023-12-04T13:56:50.655Z,98264.09
2023-12-04T13:59:52.449Z,98263.44
2023-12-04T14:03:05.815Z,98234.28
2023-12-04T14:06:08.400Z,98239.13
2023-12-04T14:09:11.911Z,98228.34
2023-12-04T14:12:15.177Z,98225.53
2023-12-04T14:15:16.889Z,98220.22
2023-12-04T14:18:18.539Z,98215.41
2023-12-04T14:21:20.232Z,98220.72
2023-12-04T14:24:22.790Z,98222.88
2023-12-04T14:27:24.433Z,98207.03
2023-12-04T14:30:28.713Z,98210.38
2023-12-04T14:33:31.430Z,98211.22
2023-12-04T14:36:33.287Z,98222.09
2023-12-04T14:39:36.577Z,98213.31
2023-12-04T14:42:38.282Z,98204.34
2023-12-04T14:45:40.343Z,98203.50
2023-12-04T14:48:42.487Z,98199.59
2023-12-04T14:51:49.209Z,98186.78
2023-12-04T14:55:13.792Z,98179.97
2023-12-04T14:58:44.866Z,98172.28
2023-12-04T15:02:06.712Z,98164.44
2023-12-04T15:05:27.439Z,98163.13
2023-12-04T15:08:29.149Z,98155.53
2023-12-04T15:11:36.439Z,98160.16
2023-12-04T15:15:01.697Z,98158.72
2023-12-04T15:18:22.435Z,98141.03
2023-12-04T15:21:24.874Z,98144.84
2023-12-04T15:24:26.870Z,98142.25
2023-12-04T15:27:28.699Z,98145.19
2023-12-04T15:30:36.563Z,98129.81
2023-12-04T15:33:38.268Z,98131.97
2023-12-04T15:36:39.997Z,98109.97
2023-12-04T15:39:41.971Z,98120.09
2023-12-04T15:42:43.695Z,98124.31
2023-12-04T15:45:45.705Z,98118.34
2023-12-04T15:48:48.103Z,98108.31
2023-12-04T15:51:49.938Z,98104.44
2023-12-04T15:54:52.268Z,98103.19
2023-12-04T15:57:56.320Z,98107.94
2023-12-04T16:00:58.452Z,98089.34
2023-12-04T16:04:00.461Z,98090.38
2023-12-04T16:07:02.507Z,98100.25
2023-12-04T16:10:07.752Z,98087.22
2023-12-04T16:13:09.443Z,98077.31
2023-12-04T16:16:11.343Z,98067.03
2023-12-04T16:19:13.175Z,98064.13
2023-12-04T16:22:14.958Z,98058.34
2023-12-04T16:25:19.348Z,98056.00
2023-12-04T16:28:24.111Z,98042.50
2023-12-04T16:31:25.759Z,98028.16
2023-12-04T16:34:28.780Z,98027.38
2023-12-04T16:37:30.736Z,98022.03
2023-12-04T16:40:32.592Z,98024.38
2023-12-04T16:43:34.268Z,98023.09
2023-12-04T16:46:35.882Z,98026.09
2023-12-04T16:49:38.113Z,98026.34
2023-12-04T16:52:39.960Z,98030.03
2023-12-04T16:55:41.624Z,98012.97
2023-12-04T16:58:43.493Z,98010.94
2023-12-04T17:01:45.325Z,97986.78
2023-12-04T17:04:47.213Z,97997.78
2023-12-04T17:07:48.963Z,98001.16
2023-12-04T17:10:50.615Z,97981.44
2023-12-04T17:13:52.519Z,97992.56
2023-12-04T17:16:54.182Z,97980.34
2023-12-04T17:19:56.572Z,97971.75
2023-12-04T17:22:58.425Z,97979.13
2023-12-04T17:26:00.141Z,97970.34
2023-12-04T17:29:02.191Z,97977.09
2023-12-04T17:32:04.397Z,97977.34
2023-12-04T17:35:07.260Z,97963.44
2023-12-04T17:38:09.020Z,97958.97
2023-12-04T17:41:12.166Z,97968.63
2023-12-04T17:44:13.936Z,97968.75
2023-12-04T17:47:15.745Z,97966.44
2023-12-04T17:50:17.370Z,97972.59
2023-12-04T17:53:19.070Z,97959.53
2023-12-04T17:56:20.763Z,97969.78
2023-12-04T17:59:22.441Z,97959.53
2023-12-04T18:02:24.107Z,97956.66
2023-12-04T18:05:25.831Z,97954.31
2023-12-04T18:08:30.062Z,97938.44
2023-12-04T18:11:31.754Z,97941.28
2023-12-04T18:14:33.789Z,97934.72
2023-12-04T18:17:42.547Z,97957.25
2023-12-04T18:20:47.732Z,97957.00
2023-12-04T18:23:50.444Z,97962.50
2023-12-04T18:26:52.369Z,97957.03
2023-12-04T18:29:54.762Z,97960.53
2023-12-04T18:32:57.140Z,97962.25
2023-12-04T18:35:59.184Z,97971.25
2023-12-04T18:39:02.584Z,97971.38
2023-12-04T18:42:04.745Z,97963.88
2023-12-04T18:45:09.320Z,97975.13
2023-12-04T18:48:16.582Z,97977.00
2023-12-04T18:51:19.108Z,97965.53
2023-12-04T18:54:20.897Z,97955.78
2023-12-04T18:57:22.632Z,97956.38
2023-12-04T19:00:26.051Z,97946.22
2023-12-04T19:03:28.183Z,97943.38
2023-12-04T19:06:29.975Z,97933.50
2023-12-04T19:09:32.215Z,97919.78
2023-12-04T19:12:34.417Z,97931.50
2023-12-04T19:15:36.098Z,97918.09
2023-12-04T19:18:39.329Z,97918.00
2023-12-04T19:21:41.276Z,97923.22
2023-12-04T19:24:42.965Z,97919.75
2023-12-04T19:27:45.072Z,97919.50
2023-12-04T19:30:46.831Z,97924.53
2023-12-04T19:33:48.546Z,97917.72
2023-12-04T19:36:50.348Z,97926.06
2023-12-04T19:39:52.380Z,97934.41
2023-12-04T19:42:54.046Z,97915.94
2023-12-04T19:45:56.175Z,97917.34
2023-12-04T19:48:58.005Z,97912.53
2023-12-04T19:51:59.875Z,97910.38
2023-12-04T19:55:01.516Z,97905.19
2023-12-04T19:58:07.650Z,97898.34
2023-12-04T20:01:09.950Z,97893.22
2023-12-04T20:04:11.689Z,97883.34
2023-12-04T20:07:13.462Z,97871.06
2023-12-04T20:10:15.199Z,97882.28
2023-12-04T20:13:17.532Z,97872.53
2023-12-04T20:16:19.176Z,97875.47
2023-12-04T20:19:21.428Z,97880.03
2023-12-04T20:22:23.096Z,97879.13
2023-12-04T20:25:27.436Z,97871.56
2023-12-04T20:28:29.198Z,97867.44
2023-12-04T20:31:31.551Z,97864.91
2023-12-04T20:34:33.403Z,97860.75
2023-12-04T20:37:41.602Z,97859.31
2023-12-04T20:40:46.127Z,97862.16
2023-12-04T20:43:47.947Z,97864.50
2023-12-04T20:46:51.292Z,97867.91
2023-12-04T20:49:52.964Z,97870.63
2023-12-04T20:52:54.598Z,97866.66
2023-12-04T20:55:56.525Z,97871.47
2023-12-04T20:58:58.234Z,97868.44
2023-12-04T21:01:59.947Z,97870.78
2023-12-04T21:05:02.270Z,97863.63
2023-12-04T21:08:04.758Z,97845.41
2023-12-04T21:11:06.794Z,97863.28
2023-12-04T21:14:09.053Z,97870.25
2023-12-04T21:17:10.748Z,97844.97
2023-12-04T21:20:12.606Z,97844.06
2023-12-04T21:23:14.203Z,97847.84
2023-12-04T21:26:16.006Z,97825.34
2023-12-04T21:29:17.929Z,97840.69
2023-12-04T21:32:19.558Z,97834.38
2023-12-04T21:35:21.203Z,97846.81
2023-12-04T21:38:22.923Z,97854.69
2023-12-04T21:41:24.903Z,97845.41
2023-12-04T21:44:26.589Z,97834.03
2023-12-04T21:47:28.276Z,97839.72
2023-12-04T21:50:29.936Z,97834.88
2023-12-04T21:53:32.192Z,97850.47
2023-12-04T21:56:34.494Z,97855.03
2023-12-04T21:59:36.139Z,97865.84
2023-12-04T22:02:38.002Z,97855.03
2023-12-04T22:05:39.627Z,97856.38
2023-12-04T22:08:41.327Z,97856.50
2023-12-04T22:11:43.640Z,97851.47
2023-12-04T22:14:45.604Z,97856.72
2023-12-04T22:17:47.290Z,97840.25
2023-12-04T22:20:48.951Z,97851.69
2023-12-04T22:23:50.618Z,97864.00
2023-12-04T22:26:52.316Z,97858.84
2023-12-04T22:29:53.928Z,97864.66
2023-12-04T22:32:56.514Z,97877.22
2023-12-04T22:35:59.928Z,97869.28
2023-12-04T22:39:01.567Z,97859.84
2023-12-04T22:42:03.461Z,97856.16
2023-12-04T22:45:05.443Z,97864.34
2023-12-04T22:48:07.108Z,97855.25
2023-12-04T22:51:08.914Z,97877.31
2023-12-04T22:54:10.762Z,97855.47
2023-12-04T22:57:12.587Z,97859.72
2023-12-04T23:00:15.395Z,97884.56
2023-12-04T23:03:17.133Z,97884.38
2023-12-04T23:06:18.952Z,97877.41
2023-12-04T23:09:20.720Z,97893.06
2023-12-04T23:12:22.590Z,97880.53
2023-12-04T23:15:24.626Z,97877.72
2023-12-04T23:18:26.404Z,97897.47
2023-12-04T23:21:28.987Z,97905.28
2023-12-04T23:24:31.181Z,97872.06
2023-12-04T23:27:37.506Z,97881.22
2023-12-04T23:30:43.622Z,97895.63
2023-12-04T23:33:45.625Z,97877.84
2023-12-04T23:36:47.314Z,97897.44
2023-12-04T23:39:49.024Z,97895.03
2023-12-04T23:42:50.679Z,97931.59
2023-12-04T23:45:56.138Z,97868.69
2023-12-04T23:48:58.753Z,97884.28
2023-12-04T23:52:00.499Z,97887.09
2023-12-04T23:55:02.275Z,97868.91
2023-12-04T23:58:03.949Z,97890.19
